Ana Sayfa
METAR-TAF:

METAR-TAF

Havaalanları :

Malakula, Vanuatu

Enlem: 16-27-26S, Boylam: 167-49-42E, yükseklik: 2 m

Güncel hava durumu gözlemi

Rapor saat 06:00 UTC de 1 saat ve 20 dakika önce yapıldı.
Rüzgar güneydoğudan 4 kt
Sıcaklık 28°C
Nem 74%
Basınç 1007 hPa

METAR: NVSL 140600Z AUTO 13004KT //// // NCD 28/23 Q1007

Saat: 18:20 (07:20 UTC)

Tahmin

Rapor saat 04:30 UTC de 2 saat ve 50 dakika önce yapıldı.
Ayın 14'si saat 06 UTC'den ayın 15'si saat 06 UTC'ye kadar geçerli Tahmin
Rüzgar doğu/güneydoğudan 5 kt
Görüş mesafesi 10 km veya daha fazla
2000 ft yükseklikte parçalı bulutlu

TAF: NVSL 140430Z 1406/1506 12005KT 9999 SCT020

4.000'den fazla havaalanı için hava durumu gözlemleri ve tahminleri (METAR ve TAF raporları).

Kullanılabilir istasyonlar harita üzerinde sarı ve kırmızı noktalarla gösterilir.

İstasyonun adını görmek için fareyi noktanın üzerinde gezdirin.

Sonrasında hava gözlem ve tahminlerini görmek için tıklayın.

Haritayı değiştirmek için: yaklaştırmak için siyah artı işaretli yeşil düğmeye ve uzaklaştırmak için de eksi işaretli düğmeye hızla tıklayın; bitişik haritalar için yeşil okları kullanın.


METAR-TAF: